Seaforth, Minnesota
Current Conditions -  °F | °C
As of 5:53 PM on Friday 21 Nov 2014 (Local Time) from KRWF Reporting Station
Clear Clear  
Wind Chill: -6°   Ceiling: Unl
Heat Index: -1°   Visibility: 10mi
Dew Point: -4°   Wind: 12mph
Humidity: 76%   Direction: 180°S
Pressure: 29.91"   Gusts: NA
Location:  44.48°N, 95.33°W
Report Text: KRWF 212353Z AUTO 18010KT 10SM CLR M01/M04 A2991 RMK AO2 SLP146 T10061044 10017 21011 56005
Loading
Personal Weather Stations






























Interactive Weather Map New forecast layout! Learn more

10-Day Weather Forecast

Advertisements
Track Severe Weather on mobile